KMSO/MSO METAR and TAF weather

Enter ICAO airport designator
Station Type Date Time Source
KMSO METAR 2020/01/23 08:53 UTC NOAA

KMSO 230853Z AUTO 00000KT 10SM OVC044 01/M01 A3014 RMK AO2 SLP223 T00111011 53002


Station Type Date Time Source
KMSO Decoded METAR 2020/01/23 08:53 UTC NOAA

MISSOULA INTERNATIONAL AIRPORT , MT, United States (KMSO) 46-55N 114-06W 975M
Jan 23, 2020 - 03:53 AM EST / 2020.01.23 0853 UTC
Wind: Calm:0
Visibility: 10 mile(s):0
Sky conditions: overcast
Temperature: 34.0 F (1.1 C)
Dew Point: 30.0 F (-1.1 C)
Relative Humidity: 85%
Pressure (altimeter): 30.14 in. Hg (1020 hPa)
Pressure tendency: 0.01 inches (0.2 hPa) higher than three hours ago
ob: KMSO 230853Z AUTO 00000KT 10SM OVC044 01/M01 A3014 RMK AO2 SLP223 T00111011 53002
cycle: 9

Station Type Date Time Source
KMSO TAF 2020/01/23 08:21 UTC NOAA

TAF
AMD KMSO 230819Z 2308/2406 VRB03KT P6SM -SN OVC045
FM231400 10002KT 6SM BR OVC050

Example: see airport list